createdAt,value
2018-12-04T00:00:35.749Z,99770.84
2018-12-04T00:03:02.517Z,99781.58
2018-12-04T00:05:28.442Z,99780.03
2018-12-04T00:07:54.530Z,99780.95
2018-12-04T00:10:20.373Z,99787.93
2018-12-04T00:12:46.233Z,99795.03
2018-12-04T00:15:13.008Z,99795.34
2018-12-04T00:17:39.826Z,99795.09
2018-12-04T00:20:06.929Z,99799.16
2018-12-04T00:22:33.514Z,99811.77
2018-12-04T00:24:59.432Z,99818.37
2018-12-04T00:27:25.167Z,99825.08
2018-12-04T00:29:51.330Z,99828.53
2018-12-04T00:32:17.060Z,99837.30
2018-12-04T00:34:42.780Z,99838.11
2018-12-04T00:37:08.963Z,99845.77
2018-12-04T00:39:34.692Z,99853.18
2018-12-04T00:42:00.411Z,99860.75
2018-12-04T00:44:27.499Z,99866.44
2018-12-04T00:46:53.267Z,99870.46
2018-12-04T00:49:19.899Z,99876.85
2018-12-04T00:51:45.724Z,99880.88
2018-12-04T00:54:11.447Z,99884.00
2018-12-04T00:56:37.292Z,99880.56
2018-12-04T00:59:03.128Z,99893.33
2018-12-04T01:01:28.957Z,99905.61
2018-12-04T01:03:54.679Z,99912.91
2018-12-04T01:06:20.518Z,99911.56
2018-12-04T01:08:46.344Z,99916.83
2018-12-04T01:11:12.289Z,99924.01
2018-12-04T01:13:38.022Z,99924.91
2018-12-04T01:16:03.758Z,99936.90
2018-12-04T01:18:29.485Z,99940.80
2018-12-04T01:20:55.311Z,99949.92
2018-12-04T01:23:21.048Z,99958.38
2018-12-04T01:25:46.804Z,99964.12
2018-12-04T01:28:12.536Z,99969.60
2018-12-04T01:30:38.280Z,99976.63
2018-12-04T01:33:04.118Z,99978.17
2018-12-04T01:35:29.857Z,99990.17
2018-12-04T01:37:55.674Z,100001.06
2018-12-04T01:40:21.454Z,100008.41
2018-12-04T01:42:47.283Z,100001.06
2018-12-04T01:45:13.136Z,100007.53
2018-12-04T01:47:38.873Z,100009.24
2018-12-04T01:50:04.802Z,100020.29
2018-12-04T01:52:30.526Z,100025.34
2018-12-04T01:54:56.251Z,100033.51
2018-12-04T01:57:22.010Z,100025.71
2018-12-04T01:59:47.852Z,100030.63
2018-12-04T02:02:13.596Z,100041.95
2018-12-04T02:04:39.345Z,100053.08
2018-12-04T02:07:05.093Z,100053.77
2018-12-04T02:09:30.926Z,100058.48
2018-12-04T02:11:56.683Z,100065.09
2018-12-04T02:14:22.419Z,100069.67
2018-12-04T02:16:48.172Z,100071.83
2018-12-04T02:19:14.105Z,100090.78
2018-12-04T02:21:39.952Z,100091.77
2018-12-04T02:24:05.691Z,100099.19
2018-12-04T02:26:31.443Z,100101.96
2018-12-04T02:28:57.162Z,100108.66
2018-12-04T02:31:22.885Z,100121.70
2018-12-04T02:33:48.609Z,100125.06
2018-12-04T02:36:21.364Z,100132.41
2018-12-04T02:38:47.095Z,100138.48
2018-12-04T02:41:12.915Z,100139.01
2018-12-04T02:43:38.735Z,100151.20
2018-12-04T02:46:04.563Z,100148.72
2018-12-04T02:48:30.289Z,100160.44
2018-12-04T02:50:56.008Z,100157.46
2018-12-04T02:53:21.831Z,100168.31
2018-12-04T02:55:47.649Z,100170.86
2018-12-04T02:58:13.382Z,100178.41
2018-12-04T03:00:39.099Z,100179.98
2018-12-04T03:03:04.839Z,100181.19
2018-12-04T03:05:30.565Z,100189.22
2018-12-04T03:07:56.294Z,100198.75
2018-12-04T03:10:22.114Z,100205.97
2018-12-04T03:12:47.864Z,100214.15
2018-12-04T03:15:13.591Z,100215.04
2018-12-04T03:17:39.306Z,100220.75
2018-12-04T03:20:05.246Z,100229.31
2018-12-04T03:22:30.967Z,100230.98
2018-12-04T03:24:56.710Z,100241.70
2018-12-04T03:27:22.439Z,100248.93
2018-12-04T03:29:48.198Z,100256.23
2018-12-04T03:32:13.960Z,100254.74
2018-12-04T03:34:39.817Z,100271.95
2018-12-04T03:37:12.439Z,100268.62
2018-12-04T03:39:38.286Z,100283.00
2018-12-04T03:42:04.118Z,100284.32
2018-12-04T03:44:29.866Z,100290.55
2018-12-04T03:46:55.623Z,100292.39
2018-12-04T03:49:21.472Z,100300.13
2018-12-04T03:51:47.302Z,100310.04
2018-12-04T03:54:13.148Z,100311.87
2018-12-04T03:56:38.981Z,100323.95
2018-12-04T03:59:04.737Z,100326.98
2018-12-04T04:01:30.569Z,100333.33
2018-12-04T04:03:56.764Z,100332.63
2018-12-04T04:06:22.617Z,100338.68
2018-12-04T04:08:48.384Z,100347.91
2018-12-04T04:11:14.138Z,100356.43
2018-12-04T04:13:39.875Z,100356.09
2018-12-04T04:16:05.639Z,100368.33
2018-12-04T04:18:31.366Z,100368.47
2018-12-04T04:20:57.157Z,100382.15
2018-12-04T04:23:22.922Z,100383.83
2018-12-04T04:25:48.772Z,100381.33
2018-12-04T04:28:14.600Z,100385.69
2018-12-04T04:30:40.357Z,100386.36
2018-12-04T04:33:06.092Z,100395.58
2018-12-04T04:35:31.846Z,100398.93
2018-12-04T04:37:57.721Z,100398.11
2018-12-04T04:40:23.474Z,100406.63
2018-12-04T04:42:49.227Z,100409.16
2018-12-04T04:45:15.075Z,100412.84
2018-12-04T04:47:40.828Z,100415.55
2018-12-04T04:50:06.698Z,100421.94
2018-12-04T04:52:32.556Z,100423.09
2018-12-04T04:54:58.309Z,100414.75
2018-12-04T04:57:31.000Z,100420.77
2018-12-04T04:59:56.727Z,100433.67
2018-12-04T05:02:22.588Z,100434.50
2018-12-04T05:04:48.444Z,100439.17
2018-12-04T05:07:14.276Z,100440.20
2018-12-04T05:09:40.105Z,100444.36
2018-12-04T05:12:05.948Z,100445.20
2018-12-04T05:14:31.793Z,100464.94
2018-12-04T05:16:57.665Z,100465.08
2018-12-04T05:19:23.492Z,100464.92
2018-12-04T05:21:49.255Z,100469.27
2018-12-04T05:24:15.034Z,100480.98
2018-12-04T05:26:40.779Z,100477.97
2018-12-04T05:29:06.532Z,100481.98
2018-12-04T05:31:32.290Z,100487.83
2018-12-04T05:33:58.044Z,100489.50
2018-12-04T05:36:23.783Z,100503.71
2018-12-04T05:38:49.575Z,100504.71
2018-12-04T05:41:15.303Z,100511.91
2018-12-04T05:43:41.040Z,100514.73
2018-12-04T05:46:06.775Z,100517.44
2018-12-04T05:48:32.628Z,100518.09
2018-12-04T05:50:58.359Z,100527.95
2018-12-04T05:53:30.170Z,100533.79
2018-12-04T05:55:55.910Z,100537.98
2018-12-04T05:58:21.647Z,100547.82
2018-12-04T06:00:47.490Z,100552.67
2018-12-04T06:03:13.227Z,100562.05
2018-12-04T06:05:38.960Z,100573.56
2018-12-04T06:08:04.831Z,100577.23
2018-12-04T06:10:30.686Z,100586.95
2018-12-04T06:12:56.458Z,100594.62
2018-12-04T06:15:22.319Z,100599.47
2018-12-04T06:17:48.163Z,100603.84
2018-12-04T06:20:13.891Z,100615.20
2018-12-04T06:22:39.647Z,100614.52
2018-12-04T06:25:05.509Z,100625.58
2018-12-04T06:27:31.358Z,100630.41
2018-12-04T06:29:57.092Z,100640.61
2018-12-04T06:32:22.934Z,100647.13
2018-12-04T06:34:48.679Z,100656.81
2018-12-04T06:37:14.504Z,100661.31
2018-12-04T06:39:40.253Z,100665.84
2018-12-04T06:42:06.102Z,100665.84
2018-12-04T06:44:31.871Z,100669.50
2018-12-04T06:46:57.614Z,100675.19
2018-12-04T06:49:23.347Z,100684.23
2018-12-04T06:51:49.167Z,100687.56
2018-12-04T06:54:14.905Z,100699.44
2018-12-04T06:56:40.667Z,100705.95
2018-12-04T06:59:06.424Z,100713.30
2018-12-04T07:01:32.178Z,100716.59
2018-12-04T07:03:57.936Z,100718.44
2018-12-04T07:06:23.679Z,100727.94
2018-12-04T07:08:49.415Z,100730.47
2018-12-04T07:11:15.389Z,100737.02
2018-12-04T07:13:41.140Z,100744.38
2018-12-04T07:16:06.873Z,100743.70
2018-12-04T07:18:32.618Z,100748.70
2018-12-04T07:20:58.471Z,100755.70
2018-12-04T07:23:24.347Z,100759.23
2018-12-04T07:25:50.117Z,100766.88
2018-12-04T07:28:15.884Z,100772.71
2018-12-04T07:30:41.622Z,100777.75
2018-12-04T07:33:07.370Z,100787.80
2018-12-04T07:35:33.139Z,100787.45
2018-12-04T07:37:58.987Z,100789.95
2018-12-04T07:40:24.726Z,100792.32
2018-12-04T07:42:50.480Z,100806.89
2018-12-04T07:45:16.215Z,100815.43
2018-12-04T07:47:49.014Z,100817.31
2018-12-04T07:50:14.800Z,100825.34
2018-12-04T07:52:40.547Z,100822.36
2018-12-04T07:55:06.390Z,100830.72
2018-12-04T07:57:32.146Z,100832.12
2018-12-04T07:59:57.898Z,100834.59
2018-12-04T08:02:23.643Z,100842.11
2018-12-04T08:04:49.379Z,100841.28
2018-12-04T08:07:15.114Z,100841.91
2018-12-04T08:09:40.860Z,100848.77
2018-12-04T08:12:06.712Z,100858.78
2018-12-04T08:14:32.463Z,100864.13
2018-12-04T08:16:58.217Z,100868.48
2018-12-04T08:19:23.971Z,100872.66
2018-12-04T08:21:49.703Z,100878.84
2018-12-04T08:24:15.487Z,100887.08
2018-12-04T08:26:41.334Z,100889.30
2018-12-04T08:29:07.202Z,100895.99
2018-12-04T08:31:32.939Z,100904.71
2018-12-04T08:33:58.706Z,100909.72
2018-12-04T08:36:24.460Z,100927.80
2018-12-04T08:38:50.187Z,100928.63
2018-12-04T08:41:16.016Z,100937.16
2018-12-04T08:43:48.817Z,100946.57
2018-12-04T08:46:14.567Z,100944.83
2018-12-04T08:48:40.305Z,100954.16
2018-12-04T08:51:06.091Z,100949.52
2018-12-04T08:53:31.838Z,100956.49
2018-12-04T08:55:57.715Z,100965.80
2018-12-04T08:58:23.463Z,100954.75
2018-12-04T09:00:49.392Z,100964.63
2018-12-04T09:03:15.143Z,100976.64
2018-12-04T09:05:40.906Z,100981.14
2018-12-04T09:08:09.276Z,100999.87
2018-12-04T09:10:34.557Z,101014.94
2018-12-04T09:13:00.310Z,101020.68
2018-12-04T09:15:26.447Z,101023.36
2018-12-04T09:17:52.227Z,101038.95
2018-12-04T09:20:17.996Z,101045.47
2018-12-04T09:22:43.887Z,101056.56
2018-12-04T09:25:09.765Z,101050.55
2018-12-04T09:27:35.652Z,101055.27
2018-12-04T09:30:01.695Z,101073.40
2018-12-04T09:32:27.442Z,101066.74
2018-12-04T09:34:53.275Z,101080.38
2018-12-04T09:37:19.016Z,101079.25
2018-12-04T09:39:44.759Z,101091.69
2018-12-04T09:42:10.611Z,101090.03
2018-12-04T09:44:36.346Z,101105.70
2018-12-04T09:47:02.212Z,101107.11
2018-12-04T09:49:28.068Z,101114.05
2018-12-04T09:51:54.780Z,101111.67
2018-12-04T09:54:20.521Z,101124.15
2018-12-04T09:56:46.294Z,101129.39
2018-12-04T09:59:12.122Z,101139.07
2018-12-04T10:01:37.927Z,101135.83
2018-12-04T10:04:03.873Z,101146.07
2018-12-04T10:06:29.614Z,101148.23
2018-12-04T10:08:55.462Z,101143.25
2018-12-04T10:11:21.199Z,101151.59
2018-12-04T10:13:46.936Z,101154.75
2018-12-04T10:16:12.671Z,101147.58
2018-12-04T10:18:38.440Z,101157.47
2018-12-04T10:21:04.487Z,101161.36
2018-12-04T10:23:30.248Z,101172.37
2018-12-04T10:25:55.995Z,101168.36
2018-12-04T10:28:21.739Z,101181.97
2018-12-04T10:33:44.018Z,101190.79
2018-12-04T10:36:09.772Z,101195.03
2018-12-04T10:38:35.531Z,101196.63
2018-12-04T10:41:01.579Z,101209.30
2018-12-04T10:43:27.338Z,101210.13
2018-12-04T10:45:53.180Z,101215.00
2018-12-04T10:48:19.040Z,101227.41
2018-12-04T10:50:44.819Z,101224.64
2018-12-04T10:53:10.589Z,101217.29
2018-12-04T10:55:36.323Z,101217.50
2018-12-04T10:58:02.190Z,101225.06
2018-12-04T11:00:34.216Z,101226.92
2018-12-04T11:03:17.823Z,101219.09
2018-12-04T11:05:43.541Z,101223.42
2018-12-04T11:08:09.287Z,101227.91
2018-12-04T11:10:35.016Z,101228.61
2018-12-04T11:13:00.856Z,101234.70
2018-12-04T11:15:26.775Z,101237.72
2018-12-04T11:17:52.621Z,101242.16
2018-12-04T11:20:18.352Z,101237.54
2018-12-04T11:22:44.117Z,101242.94
2018-12-04T11:25:09.898Z,101245.93
2018-12-04T11:27:35.646Z,101254.22
2018-12-04T11:30:01.490Z,101255.67
2018-12-04T11:32:27.442Z,101264.64
2018-12-04T11:34:53.212Z,101269.66
2018-12-04T11:37:18.955Z,101277.88
2018-12-04T11:39:44.820Z,101280.91
2018-12-04T11:42:10.551Z,101281.26
2018-12-04T11:44:36.314Z,101291.72
2018-12-04T11:47:02.059Z,101287.24
2018-12-04T11:49:27.828Z,101296.77
2018-12-04T11:51:53.585Z,101302.00
2018-12-04T11:54:19.319Z,101304.89
2018-12-04T11:56:45.079Z,101299.34
2018-12-04T11:59:10.848Z,101306.27
2018-12-04T12:01:36.723Z,101307.74
2018-12-04T12:04:02.689Z,101315.48
2018-12-04T12:06:28.550Z,101314.52
2018-12-04T12:08:54.341Z,101316.74
2018-12-04T12:11:20.179Z,101313.55
2018-12-04T12:13:45.894Z,101328.17
2018-12-04T12:16:11.722Z,101329.66
2018-12-04T12:18:37.461Z,101333.78
2018-12-04T12:21:03.297Z,101339.91
2018-12-04T12:23:29.039Z,101343.28
2018-12-04T12:25:54.791Z,101347.03
2018-12-04T12:28:20.619Z,101355.13
2018-12-04T12:30:46.387Z,101360.87
2018-12-04T12:33:12.120Z,101366.27
2018-12-04T12:35:37.963Z,101375.63
2018-12-04T12:38:03.804Z,101370.75
2018-12-04T12:40:29.648Z,101364.34
2018-12-04T12:42:55.388Z,101368.99
2018-12-04T12:45:21.237Z,101372.84
2018-12-04T12:47:47.115Z,101379.03
2018-12-04T12:50:12.966Z,101383.20
2018-12-04T12:52:38.714Z,101378.48
2018-12-04T12:55:04.551Z,101388.22
2018-12-04T12:57:30.282Z,101390.38
2018-12-04T12:59:56.032Z,101397.09
2018-12-04T13:02:21.873Z,101404.80
2018-12-04T13:04:47.628Z,101411.51
2018-12-04T13:07:13.512Z,101411.16
2018-12-04T13:09:39.280Z,101424.22
2018-12-04T13:12:05.072Z,101425.05
2018-12-04T13:14:30.816Z,101421.67
2018-12-04T13:16:56.583Z,101441.80
2018-12-04T13:19:22.439Z,101446.81
2018-12-04T13:21:48.166Z,101443.91
2018-12-04T13:24:14.043Z,101449.52
2018-12-04T13:26:39.902Z,101452.45
2018-12-04T13:29:05.842Z,101461.27
2018-12-04T13:31:31.711Z,101475.13
2018-12-04T13:33:57.447Z,101472.56
2018-12-04T13:36:23.284Z,101476.98
2018-12-04T13:38:49.147Z,101482.41
2018-12-04T13:41:15.125Z,101491.22
2018-12-04T13:43:40.882Z,101492.38
2018-12-04T13:46:06.742Z,101497.26
2018-12-04T13:48:32.495Z,101507.77
2018-12-04T13:50:58.302Z,101503.84
2018-12-04T13:53:24.048Z,101502.03
2018-12-04T13:55:49.866Z,101468.72
2018-12-04T13:58:15.631Z,101510.48
2018-12-04T14:00:41.456Z,101517.98
2018-12-04T14:03:07.223Z,101524.91
2018-12-04T14:05:33.171Z,101523.25
2018-12-04T14:07:59.034Z,101528.41
2018-12-04T14:10:31.848Z,101534.47
2018-12-04T14:12:57.595Z,101544.30
2018-12-04T14:15:23.354Z,101544.26
2018-12-04T14:17:49.276Z,101538.69
2018-12-04T14:20:15.118Z,101548.61
2018-12-04T14:22:42.763Z,101551.91
2018-12-04T14:25:08.681Z,101554.42
2018-12-04T14:27:34.480Z,101559.73
2018-12-04T14:30:00.402Z,101567.34
2018-12-04T14:32:26.294Z,101572.96
2018-12-04T14:34:53.626Z,101586.50
2018-12-04T14:37:20.919Z,101589.97
2018-12-04T14:39:46.781Z,101593.55
2018-12-04T14:42:12.542Z,101596.52
2018-12-04T14:44:38.472Z,101601.50
2018-12-04T14:47:04.295Z,101605.61
2018-12-04T14:49:30.232Z,101617.95
2018-12-04T14:51:56.006Z,101609.08
2018-12-04T14:54:21.902Z,101613.39
2018-12-04T14:56:47.796Z,101611.77
2018-12-04T14:59:13.655Z,101618.66
2018-12-04T15:01:39.629Z,101622.89
2018-12-04T15:04:05.608Z,101629.69
2018-12-04T15:06:31.464Z,101635.05
2018-12-04T15:08:57.280Z,101637.69
2018-12-04T15:11:23.023Z,101640.30
2018-12-04T15:13:48.881Z,101644.55
2018-12-04T15:16:14.687Z,101650.47
2018-12-04T15:18:40.457Z,101644.83
2018-12-04T15:21:06.297Z,101655.47
2018-12-04T15:23:32.139Z,101662.52
2018-12-04T15:25:58.083Z,101662.95
2018-12-04T15:28:23.960Z,101673.82
2018-12-04T15:30:50.105Z,101677.84
2018-12-04T15:33:15.940Z,101683.47
2018-12-04T15:35:41.677Z,101693.39
2018-12-04T15:38:07.511Z,101698.98
2018-12-04T15:40:34.071Z,101700.25
2018-12-04T15:43:00.060Z,101708.63
2018-12-04T15:45:26.008Z,101708.34
2018-12-04T15:47:51.939Z,101711.99
2018-12-04T15:50:17.679Z,101720.88
2018-12-04T15:52:43.430Z,101722.73
2018-12-04T15:55:09.398Z,101734.84
2018-12-04T15:57:35.127Z,101734.99
2018-12-04T16:00:00.974Z,101739.08
2018-12-04T16:02:26.728Z,101740.06
2018-12-04T16:04:52.575Z,101748.81
2018-12-04T16:07:18.298Z,101750.41
2018-12-04T16:09:44.014Z,101746.75
2018-12-04T16:12:09.731Z,101747.95
2018-12-04T16:14:35.596Z,101754.09
2018-12-04T16:17:01.336Z,101758.95
2018-12-04T16:19:27.204Z,101754.66
2018-12-04T16:21:52.954Z,101754.86
2018-12-04T16:24:18.693Z,101761.55
2018-12-04T16:26:44.544Z,101766.00
2018-12-04T16:29:10.271Z,101761.79
2018-12-04T16:31:35.999Z,101760.09
2018-12-04T16:34:01.950Z,101767.64
2018-12-04T16:36:27.691Z,101764.61
2018-12-04T16:38:53.420Z,101773.39
2018-12-04T16:41:19.146Z,101775.80
2018-12-04T16:43:44.987Z,101782.64
2018-12-04T16:46:10.854Z,101793.70
2018-12-04T16:48:36.579Z,101789.06
2018-12-04T16:51:02.417Z,101792.28
2018-12-04T16:53:28.162Z,101791.22
2018-12-04T16:55:54.024Z,101795.92
2018-12-04T16:58:19.762Z,101797.31
2018-12-04T17:00:45.603Z,101804.01
2018-12-04T17:03:11.326Z,101801.75
2018-12-04T17:05:37.178Z,101805.34
2018-12-04T17:08:02.928Z,101811.80
2018-12-04T17:10:28.746Z,101814.41
2018-12-04T17:12:54.475Z,101819.31
2018-12-04T17:15:20.426Z,101829.16
2018-12-04T17:17:46.174Z,101832.95
2018-12-04T17:20:11.969Z,101828.89
2018-12-04T17:22:37.698Z,101829.39
2018-12-04T17:25:03.752Z,101838.41
2018-12-04T17:27:29.516Z,101839.33
2018-12-04T17:29:55.266Z,101842.87
2018-12-04T17:32:21.004Z,101848.98
2018-12-04T17:34:46.741Z,101847.90
2018-12-04T17:37:12.798Z,101846.97
2018-12-04T17:39:38.547Z,101836.92
2018-12-04T17:42:04.287Z,101836.96
2018-12-04T17:44:30.138Z,101834.91
2018-12-04T17:46:55.906Z,101833.45
2018-12-04T17:49:21.630Z,101841.98
2018-12-04T17:51:47.476Z,101850.30
2018-12-04T17:54:13.217Z,101854.53
2018-12-04T17:56:38.956Z,101854.78
2018-12-04T17:59:04.693Z,101857.34
2018-12-04T18:01:30.439Z,101858.32
2018-12-04T18:03:56.170Z,101854.92
2018-12-04T18:06:21.914Z,101857.02
2018-12-04T18:08:47.635Z,101864.17
2018-12-04T18:11:13.415Z,101864.45
2018-12-04T18:13:39.147Z,101862.61
2018-12-04T18:16:04.879Z,101862.28
2018-12-04T18:18:30.613Z,101868.74
2018-12-04T18:20:56.471Z,101863.87
2018-12-04T18:23:22.230Z,101869.58
2018-12-04T18:25:47.979Z,101872.53
2018-12-04T18:28:13.730Z,101877.01
2018-12-04T18:30:39.467Z,101874.11
2018-12-04T18:33:05.212Z,101884.55
2018-12-04T18:35:30.931Z,101885.41
2018-12-04T18:37:56.659Z,101890.52
2018-12-04T18:40:22.490Z,101890.02
2018-12-04T18:42:48.214Z,101895.86
2018-12-04T18:45:14.090Z,101900.59
2018-12-04T18:47:39.942Z,101902.78
2018-12-04T18:50:06.570Z,101902.56
2018-12-04T18:52:32.435Z,101902.54
2018-12-04T18:54:58.621Z,101901.67
2018-12-04T18:57:24.407Z,101909.45
2018-12-04T18:59:50.138Z,101916.52
2018-12-04T19:02:15.866Z,101917.98
2018-12-04T19:04:48.571Z,101923.33
2018-12-04T19:07:14.522Z,101917.98
2018-12-04T19:09:40.691Z,101920.77
2018-12-04T19:12:06.527Z,101926.72
2018-12-04T19:14:32.976Z,101927.00
2018-12-04T19:16:58.748Z,101927.85
2018-12-04T19:19:24.507Z,101921.41
2018-12-04T19:21:50.255Z,101925.16
2018-12-04T19:24:16.107Z,101933.55
2018-12-04T19:26:41.847Z,101933.75
2018-12-04T19:29:07.677Z,101939.01
2018-12-04T19:31:33.424Z,101939.98
2018-12-04T19:33:59.172Z,101947.52
2018-12-04T19:36:24.907Z,101953.60
2018-12-04T19:38:50.639Z,101957.25
2018-12-04T19:41:16.464Z,101970.76
2018-12-04T19:43:42.294Z,101969.91
2018-12-04T19:46:08.165Z,101973.55
2018-12-04T19:48:33.954Z,101981.80
2018-12-04T19:50:59.796Z,101982.54
2018-12-04T19:53:25.566Z,101985.81
2018-12-04T19:55:51.322Z,101988.25
2018-12-04T19:58:17.049Z,101987.06
2018-12-04T20:00:42.906Z,101993.84
2018-12-04T20:03:08.647Z,101995.67
2018-12-04T20:05:34.394Z,102008.77
2018-12-04T20:08:00.317Z,102007.33
2018-12-04T20:10:26.749Z,102007.43
2018-12-04T20:12:52.493Z,102013.73
2018-12-04T20:15:18.238Z,102016.90
2018-12-04T20:17:44.117Z,102027.21
2018-12-04T20:20:09.955Z,102035.95
2018-12-04T20:22:35.680Z,102039.45
2018-12-04T20:25:01.431Z,102038.70
2018-12-04T20:27:27.163Z,102052.04
2018-12-04T20:29:52.900Z,102058.70
2018-12-04T20:32:18.629Z,102055.79
2018-12-04T20:34:44.365Z,102060.53
2018-12-04T20:37:10.104Z,102056.26
2018-12-04T20:39:35.939Z,102058.45
2018-12-04T20:42:01.667Z,102067.08
2018-12-04T20:44:27.391Z,102070.09
2018-12-04T20:46:53.138Z,102069.95
2018-12-04T20:49:18.877Z,102066.67
2018-12-04T20:51:44.734Z,102065.69
2018-12-04T20:54:10.497Z,102073.20
2018-12-04T20:56:36.246Z,102078.91
2018-12-04T20:59:02.200Z,102079.28
2018-12-04T21:01:27.944Z,102085.48
2018-12-04T21:03:55.103Z,102087.78
2018-12-04T21:06:20.871Z,102087.78
2018-12-04T21:08:46.602Z,102094.30
2018-12-04T21:11:12.347Z,102094.15
2018-12-04T21:13:38.071Z,102091.39
2018-12-04T21:16:03.916Z,102092.08
2018-12-04T21:18:29.660Z,102092.34
2018-12-04T21:20:55.506Z,102088.79
2018-12-04T21:23:21.275Z,102098.34
2018-12-04T21:25:47.117Z,102100.20
2018-12-04T21:28:18.946Z,102107.38
2018-12-04T21:30:57.957Z,102107.09
2018-12-04T21:33:31.650Z,102103.00
2018-12-04T21:36:03.990Z,102103.81
2018-12-04T21:38:36.336Z,102111.22
2018-12-04T21:41:05.090Z,102113.39
2018-12-04T21:43:37.735Z,102110.02
2018-12-04T21:46:09.798Z,102116.90
2018-12-04T21:48:35.907Z,102111.78
2018-12-04T21:51:01.906Z,102114.05
2018-12-04T21:53:27.635Z,102116.56
2018-12-04T21:55:53.384Z,102114.95
2018-12-04T21:58:19.283Z,102117.86
2018-12-04T22:00:45.297Z,102122.70
2018-12-04T22:03:11.474Z,102124.84
2018-12-04T22:05:37.612Z,102125.17
2018-12-04T22:08:03.791Z,102132.67
2018-12-04T22:10:30.209Z,102135.46
2018-12-04T22:12:56.341Z,102138.50
2018-12-04T22:15:23.799Z,102139.80
2018-12-04T22:17:51.020Z,102147.05
2018-12-04T22:20:17.617Z,102151.08
2018-12-04T22:22:44.675Z,102155.67
2018-12-04T22:25:10.917Z,102165.75
2018-12-04T22:27:37.028Z,102160.12
2018-12-04T22:30:05.338Z,102160.36
2018-12-04T22:32:34.565Z,102155.66
2018-12-04T22:35:01.246Z,102165.82
2018-12-04T22:37:27.404Z,102168.28
2018-12-04T22:39:53.516Z,102171.28
2018-12-04T22:42:20.872Z,102166.28
2018-12-04T22:44:47.042Z,102167.33
2018-12-04T22:47:13.287Z,102163.24
2018-12-04T22:49:39.386Z,102170.37
2018-12-04T22:52:05.599Z,102168.45
2018-12-04T22:54:32.362Z,102170.86
2018-12-04T22:57:01.727Z,102178.11
2018-12-04T22:59:28.036Z,102172.24
2018-12-04T23:01:54.347Z,102172.48
2018-12-04T23:04:20.424Z,102175.24
2018-12-04T23:06:51.551Z,102174.23
2018-12-04T23:09:18.152Z,102171.78
2018-12-04T23:11:46.498Z,102175.65
2018-12-04T23:14:12.783Z,102177.30
2018-12-04T23:16:39.599Z,102170.81
2018-12-04T23:19:05.803Z,102173.35
2018-12-04T23:21:34.173Z,102174.36
2018-12-04T23:24:02.224Z,102185.52
2018-12-04T23:26:29.429Z,102188.75
2018-12-04T23:28:56.164Z,102194.34
2018-12-04T23:31:22.324Z,102208.04
2018-12-04T23:33:48.586Z,102203.25
2018-12-04T23:36:14.667Z,102195.89
2018-12-04T23:38:40.861Z,102202.22
2018-12-04T23:41:06.978Z,102197.23
2018-12-04T23:43:33.135Z,102189.95
2018-12-04T23:45:59.267Z,102187.28
2018-12-04T23:48:26.365Z,102189.81
2018-12-04T23:50:53.101Z,102191.61
2018-12-04T23:53:19.526Z,102195.73
2018-12-04T23:55:46.062Z,102201.69
2018-12-04T23:58:12.834Z,102198.18
